Juergen K — PBKV — position and weather

sailwx.info

Track history (hours):
 
Tides and Currents Weather Stations Pressure Air Temp Water Temp Dewpoint Dewpoint Depression Visibility Wind Speed Wind Dir Waves Ship Positions

Juergen K

Last reported at 2014-Sep-12 07:17 UTC. Time now 2014-Sep-15 04:03 UTC.
Position N 40°18' E 000°59'.

Length 89 m; draft 5 m.

Type: Cargo ship. MMSI: 244329000.

Date/timePositionNaut miles runAvg speedWind from/ knotsBaromVisibWave heightAir tempDewpointWater temp
2014-Sep-12 07:17N 40°18' E 000°59'1 1.9
2014-Sep-12 06:34N 40°16' E 000°59'1010.0
2014-Sep-12 05:33N 40°06' E 000°56'10 9.8
2014-Sep-12 04:34N 39°57' E 000°53'10 9.6
2014-Sep-12 03:34N 39°48' E 000°50'10 9.4
2014-Sep-12 02:32N 39°38' E 000°47'10 9.6
2014-Sep-12 01:29N 39°29' E 000°43'19 9.7
2014-Sep-11 23:32N 39°10' E 000°37'10 9.7
2014-Sep-11 22:33N 39°01' E 000°34'19 8.4
2014-Sep-11 20:20N 38°43' E 000°29'1010.1
2014-Sep-11 19:23N 38°35' E 000°22'910.3
2014-Sep-11 18:33N 38°28' E 000°15'1010.1
2014-Sep-11 17:33N 38°20' E 000°08'2010.2
2014-Sep-11 15:33N 38°03' W 000°06'1010.4
2014-Sep-11 14:33N 37°54' W 000°13'1110.2
2014-Sep-11 13:31N 37°45' W 000°21'1010.0
2014-Sep-11 12:33N 37°37' W 000°27'13 9.8
2014-Sep-11 11:12N 37°27' W 000°39'6 9.4
2014-Sep-11 10:33N 37°23' W 000°45'10 9.7
2014-Sep-11 09:32N 37°17' W 000°54'10 9.8
2014-Sep-11 08:33N 37°10' W 001°03'9 9.6
2014-Sep-11 07:34N 37°04' W 001°12'213 9.6
2014-Sep-10 09:20N 35°58' W 005°24'  
2014-Sep-05 05:32N 50°36' E 000°24'9 9.4
2014-Sep-05 04:33N 50°40' E 000°37'1010.0
2014-Sep-05 03:33N 50°46' E 000°50'1210.9
2014-Sep-05 02:29N 50°52' E 001°05'1311.8
2014-Sep-05 01:24N 51°01' E 001°21'1011.7
2014-Sep-05 00:33N 51°07' E 001°33'1010.6
2014-Sep-04 23:33N 51°14' E 001°45'10 9.8
2014-Sep-04 22:33N 51°22' E 001°53'9 9.1
2014-Sep-04 21:33N 51°30' E 002°01'9 9.1
2014-Sep-04 20:33N 51°37' E 002°12'9 9.4
2014-Sep-04 19:33N 51°43' E 002°22'1110.0
2014-Sep-04 18:30N 51°51' E 002°34'1210.8
2014-Sep-04 17:24N 51°59' E 002°48'2210.9
2014-Sep-04 15:21N 52°03' E 003°23'1411.0
2014-Sep-04 14:06N 52°03' E 003°46'610.4
2014-Sep-04 13:33N 52°02' E 003°55'9 8.6
2014-Sep-04 12:32N 51°58' E 004°07'0 0.0
2014-Sep-04 11:32N 51°58' E 004°07'0 0.0
2014-Sep-04 10:32N 51°58' E 004°07'0 0.0
2014-Sep-04 09:23N 51°58' E 004°07'0 0.0
2014-Sep-04 08:29N 51°58' E 004°07'0 0.0
2014-Sep-04 07:32N 51°58' E 004°07'0 0.0
2014-Sep-04 06:32N 51°58' E 004°07'0 0.0
2014-Sep-04 05:32N 51°58' E 004°07'0 0.0
2014-Sep-04 04:32N 51°58' E 004°07'0 0.0
2014-Sep-04 03:32N 51°58' E 004°07'0 0.0
2014-Sep-04 02:29N 51°58' E 004°07'0 0.0
2014-Sep-04 01:32N 51°58' E 004°07'0 0.0
2014-Sep-04 00:29N 51°58' E 004°07'0 0.0
2014-Sep-03 23:32N 51°58' E 004°07'0 0.0
2014-Sep-03 22:29N 51°58' E 004°07'0 0.0
2014-Sep-03 21:32N 51°58' E 004°07'0 0.0
2014-Sep-03 20:32N 51°58' E 004°07'0 0.0
2014-Sep-03 19:32N 51°58' E 004°07'0 0.0
2014-Sep-03 18:32N 51°58' E 004°07'0 0.0
2014-Sep-03 17:29N 51°58' E 004°07'0 0.0
2014-Sep-03 16:32N 51°58' E 004°07'0 0.0
2014-Sep-03 15:29N 51°58' E 004°07'0 0.0
2014-Sep-03 14:26N 51°58' E 004°07'0 0.0
2014-Sep-03 13:32N 51°58' E 004°07'0 0.0
2014-Sep-03 12:32N 51°58' E 004°07'0 0.0
2014-Sep-03 11:32N 51°58' E 004°07'0 0.0
2014-Sep-03 10:32N 51°58' E 004°07'0 0.0
2014-Sep-03 09:32N 51°58' E 004°07'0 0.0
2014-Sep-03 08:32N 51°58' E 004°07'0 0.0
2014-Sep-03 07:32N 51°58' E 004°07'0 0.0
2014-Sep-03 06:32N 51°58' E 004°07'0 0.0
2014-Sep-03 05:32N 51°58' E 004°07'0 0.0
2014-Sep-03 04:32N 51°58' E 004°07'0 0.0
2014-Sep-03 03:29N 51°58' E 004°07'0 0.0
2014-Sep-03 02:32N 51°58' E 004°07'0 0.0
2014-Sep-03 01:32N 51°58' E 004°07'0 0.0
2014-Sep-03 00:23N 51°58' E 004°07'0 0.0
2014-Sep-02 23:29N 51°58' E 004°07'0 0.0
2014-Sep-02 22:32N 51°58' E 004°07'0 0.0
2014-Sep-02 21:32N 51°58' E 004°07'0 0.0
2014-Sep-02 20:32N 51°58' E 004°07'0 0.0
2014-Sep-02 19:32N 51°58' E 004°07'0 0.0
2014-Sep-02 18:32N 51°58' E 004°07'0 0.0
2014-Sep-02 17:32N 51°58' E 004°07'0 0.0
2014-Sep-02 16:30N 51°58' E 004°07'0 0.3
2014-Sep-02 15:23N 51°57' E 004°08'0 0.0
2014-Sep-02 14:32N 51°57' E 004°08'0 0.0
2014-Sep-02 13:29N 51°57' E 004°08'0 0.0
2014-Sep-02 12:29N 51°57' E 004°08'0 0.0
2014-Sep-02 11:17N 51°57' E 004°08'0 0.0
2014-Sep-02 10:29N 51°57' E 004°08'0 0.0
2014-Sep-02 09:32N 51°57' E 004°08'0 0.0
2014-Sep-02 08:32N 51°57' E 004°08'0 0.0
2014-Sep-02 07:26N 51°57' E 004°08'  
Track history (hours):
 
Tides and Currents Weather Stations Pressure Air Temp Water Temp Dewpoint Dewpoint Depression Visibility Wind Speed Wind Dir Waves Ship Positions

Juergen K

Last reported at 2014-Sep-12 07:17 UTC. Time now 2014-Sep-15 04:03 UTC.
Position N 40°18' E 000°59'.

Length 89 m; draft 5 m.

Type: Cargo ship. MMSI: 244329000.

Date/timePositionNaut miles runAvg speedWind from/ knotsBaromVisibWave heightAir tempDewpointWater temp
2014-Sep-12 07:17N 40°18' E 000°59'1 1.9
2014-Sep-12 06:34N 40°16' E 000°59'1010.0
2014-Sep-12 05:33N 40°06' E 000°56'10 9.8
2014-Sep-12 04:34N 39°57' E 000°53'10 9.6
2014-Sep-12 03:34N 39°48' E 000°50'10 9.4
2014-Sep-12 02:32N 39°38' E 000°47'10 9.6
2014-Sep-12 01:29N 39°29' E 000°43'19 9.7
2014-Sep-11 23:32N 39°10' E 000°37'10 9.7
2014-Sep-11 22:33N 39°01' E 000°34'19 8.4
2014-Sep-11 20:20N 38°43' E 000°29'1010.1
2014-Sep-11 19:23N 38°35' E 000°22'910.3
2014-Sep-11 18:33N 38°28' E 000°15'1010.1
2014-Sep-11 17:33N 38°20' E 000°08'2010.2
2014-Sep-11 15:33N 38°03' W 000°06'1010.4
2014-Sep-11 14:33N 37°54' W 000°13'1110.2
2014-Sep-11 13:31N 37°45' W 000°21'1010.0
2014-Sep-11 12:33N 37°37' W 000°27'13 9.8
2014-Sep-11 11:12N 37°27' W 000°39'6 9.4
2014-Sep-11 10:33N 37°23' W 000°45'10 9.7
2014-Sep-11 09:32N 37°17' W 000°54'10 9.8
2014-Sep-11 08:33N 37°10' W 001°03'9 9.6
2014-Sep-11 07:34N 37°04' W 001°12'213 9.6
2014-Sep-10 09:20N 35°58' W 005°24'  
2014-Sep-05 05:32N 50°36' E 000°24'9 9.4
2014-Sep-05 04:33N 50°40' E 000°37'1010.0
2014-Sep-05 03:33N 50°46' E 000°50'1210.9
2014-Sep-05 02:29N 50°52' E 001°05'1311.8
2014-Sep-05 01:24N 51°01' E 001°21'1011.7
2014-Sep-05 00:33N 51°07' E 001°33'1010.6
2014-Sep-04 23:33N 51°14' E 001°45'10 9.8
2014-Sep-04 22:33N 51°22' E 001°53'9 9.1
2014-Sep-04 21:33N 51°30' E 002°01'9 9.1
2014-Sep-04 20:33N 51°37' E 002°12'9 9.4
2014-Sep-04 19:33N 51°43' E 002°22'1110.0
2014-Sep-04 18:30N 51°51' E 002°34'1210.8
2014-Sep-04 17:24N 51°59' E 002°48'2210.9
2014-Sep-04 15:21N 52°03' E 003°23'1411.0
2014-Sep-04 14:06N 52°03' E 003°46'610.4
2014-Sep-04 13:33N 52°02' E 003°55'9 8.6
2014-Sep-04 12:32N 51°58' E 004°07'0 0.0
2014-Sep-04 11:32N 51°58' E 004°07'0 0.0
2014-Sep-04 10:32N 51°58' E 004°07'0 0.0
2014-Sep-04 09:23N 51°58' E 004°07'0 0.0
2014-Sep-04 08:29N 51°58' E 004°07'0 0.0
2014-Sep-04 07:32N 51°58' E 004°07'0 0.0
2014-Sep-04 06:32N 51°58' E 004°07'0 0.0
2014-Sep-04 05:32N 51°58' E 004°07'0 0.0
2014-Sep-04 04:32N 51°58' E 004°07'0 0.0
2014-Sep-04 03:32N 51°58' E 004°07'0 0.0
2014-Sep-04 02:29N 51°58' E 004°07'0 0.0
2014-Sep-04 01:32N 51°58' E 004°07'0 0.0
2014-Sep-04 00:29N 51°58' E 004°07'0 0.0
2014-Sep-03 23:32N 51°58' E 004°07'0 0.0
2014-Sep-03 22:29N 51°58' E 004°07'0 0.0
2014-Sep-03 21:32N 51°58' E 004°07'0 0.0
2014-Sep-03 20:32N 51°58' E 004°07'0 0.0
2014-Sep-03 19:32N 51°58' E 004°07'0 0.0
2014-Sep-03 18:32N 51°58' E 004°07'0 0.0
2014-Sep-03 17:29N 51°58' E 004°07'0 0.0
2014-Sep-03 16:32N 51°58' E 004°07'0 0.0
2014-Sep-03 15:29N 51°58' E 004°07'0 0.0
2014-Sep-03 14:26N 51°58' E 004°07'0 0.0
2014-Sep-03 13:32N 51°58' E 004°07'0 0.0
2014-Sep-03 12:32N 51°58' E 004°07'0 0.0
2014-Sep-03 11:32N 51°58' E 004°07'0 0.0
2014-Sep-03 10:32N 51°58' E 004°07'0 0.0
2014-Sep-03 09:32N 51°58' E 004°07'0 0.0
2014-Sep-03 08:32N 51°58' E 004°07'0 0.0
2014-Sep-03 07:32N 51°58' E 004°07'0 0.0
2014-Sep-03 06:32N 51°58' E 004°07'0 0.0
2014-Sep-03 05:32N 51°58' E 004°07'0 0.0
2014-Sep-03 04:32N 51°58' E 004°07'0 0.0
2014-Sep-03 03:29N 51°58' E 004°07'0 0.0
2014-Sep-03 02:32N 51°58' E 004°07'0 0.0
2014-Sep-03 01:32N 51°58' E 004°07'0 0.0
2014-Sep-03 00:23N 51°58' E 004°07'0 0.0
2014-Sep-02 23:29N 51°58' E 004°07'0 0.0
2014-Sep-02 22:32N 51°58' E 004°07'0 0.0
2014-Sep-02 21:32N 51°58' E 004°07'0 0.0
2014-Sep-02 20:32N 51°58' E 004°07'0 0.0
2014-Sep-02 19:32N 51°58' E 004°07'0 0.0
2014-Sep-02 18:32N 51°58' E 004°07'0 0.0
2014-Sep-02 17:32N 51°58' E 004°07'0 0.0
2014-Sep-02 16:30N 51°58' E 004°07'0 0.3
2014-Sep-02 15:23N 51°57' E 004°08'0 0.0
2014-Sep-02 14:32N 51°57' E 004°08'0 0.0
2014-Sep-02 13:29N 51°57' E 004°08'0 0.0
2014-Sep-02 12:29N 51°57' E 004°08'0 0.0
2014-Sep-02 11:17N 51°57' E 004°08'0 0.0
2014-Sep-02 10:29N 51°57' E 004°08'0 0.0
2014-Sep-02 09:32N 51°57' E 004°08'0 0.0
2014-Sep-02 08:32N 51°57' E 004°08'0 0.0
2014-Sep-02 07:26N 51°57' E 004°08'  

Dump ship's entire track history